Time;durP1;ratioP1;P1;durP2;ratioP2;P2;SDS_P1;SDS_P2;PMS_P1;PMS_P2;Temp;Humidity;BMP_temperature;BMP_pressure;BME280_temperature;BME280_humidity;BME280_pressure;Samples;Min_cycle;Max_cycle;Signal;HPM_P1;HPM_P2
2023/06/25 00:00:23;;;;;;;6.43;3.67;;;;;;;;;;5048821;28;20711;-71
2023/06/25 00:02:48;;;;;;;7.05;4.40;;;;;;;;;;5049001;28;20844;-71
2023/06/25 00:05:14;;;;;;;5.97;4.03;;;;;;;;;;5047422;28;20053;-70
2023/06/25 00:07:40;;;;;;;6.03;3.65;;;;;;;;;;5048683;28;20040;-70
2023/06/25 00:10:06;;;;;;;7.40;4.18;;;;;;;;;;5048792;28;20029;-71
2023/06/25 00:12:32;;;;;;;7.47;4.70;;;;;;;;;;5042709;28;20047;-71
2023/06/25 00:14:58;;;;;;;8.15;4.60;;;;;;;;;;5047188;28;20021;-71
2023/06/25 00:17:27;;;;;;;7.57;4.57;;;;;;;;;;5049337;28;20024;-70
2023/06/25 00:19:56;;;;;;;6.32;3.97;;;;;;;;;;5048544;28;20554;-71
2023/06/25 00:22:22;;;;;;;6.32;4.05;;;;;;;;;;5048954;28;20036;-70
2023/06/25 00:24:47;;;;;;;6.05;3.90;;;;;;;;;;5047096;28;20550;-71
2023/06/25 00:27:13;;;;;;;8.85;5.60;;;;;;;;;;5048843;28;20095;-70
2023/06/25 00:29:38;;;;;;;7.45;4.60;;;;;;;;;;5081449;28;20017;-70
2023/06/25 00:32:04;;;;;;;6.93;4.55;;;;;;;;;;5048350;28;20025;-70
2023/06/25 00:34:29;;;;;;;8.85;4.80;;;;;;;;;;5048319;28;20082;-71
2023/06/25 00:36:54;;;;;;;8.57;4.57;;;;;;;;;;5048682;28;20041;-70
2023/06/25 00:39:20;;;;;;;7.38;4.63;;;;;;;;;;5048696;28;20116;-71
2023/06/25 00:41:45;;;;;;;9.15;5.07;;;;;;;;;;5049142;28;20021;-70
2023/06/25 00:44:10;;;;;;;9.40;5.45;;;;;;;;;;5054820;28;20132;-70
2023/06/25 00:46:36;;;;;;;9.20;4.63;;;;;;;;;;5061000;28;20033;-70
2023/06/25 00:49:05;;;;;;;10.43;5.68;;;;;;;;;;5047516;28;20574;-71
2023/06/25 00:51:32;;;;;;;9.75;5.63;;;;;;;;;;5047747;28;20037;-71
2023/06/25 00:53:58;;;;;;;8.57;4.82;;;;;;;;;;5048056;28;20051;-70
2023/06/25 00:56:30;;;;;;;7.90;5.32;;;;;;;;;;5046848;28;20024;-71
2023/06/25 00:59:01;;;;;;;10.05;5.55;;;;;;;;;;5045975;28;20037;-71
2023/06/25 01:01:47;;;;;;;8.70;5.80;;;;;;;;;;5046432;28;20078;-71
2023/06/25 01:04:22;;;;;;;10.90;6.00;;;;;;;;;;5050942;28;20056;-70
2023/06/25 01:06:51;;;;;;;12.38;6.45;;;;;;;;;;5044745;28;20037;-70
2023/06/25 01:09:16;;;;;;;10.70;6.20;;;;;;;;;;5048037;28;20596;-70
2023/06/25 01:12:07;;;;;;;10.57;6.13;;;;;;;;;;5047639;28;20585;-70
2023/06/25 01:14:33;;;;;;;9.07;5.70;;;;;;;;;;5047235;28;20106;-70
2023/06/25 01:16:59;;;;;;;11.05;6.43;;;;;;;;;;5047547;28;20029;-70
2023/06/25 01:19:29;;;;;;;11.13;5.90;;;;;;;;;;5045783;28;20037;-70
2023/06/25 01:22:00;;;;;;;11.05;6.22;;;;;;;;;;5047921;28;20067;-71
2023/06/25 01:24:29;;;;;;;10.52;5.95;;;;;;;;;;5047029;28;20039;-71
2023/06/25 01:26:56;;;;;;;8.65;5.22;;;;;;;;;;5047107;28;20380;-70
2023/06/25 01:29:22;;;;;;;10.02;5.55;;;;;;;;;;5048324;28;20025;-71
2023/06/25 01:31:51;;;;;;;10.00;5.85;;;;;;;;;;5046009;28;20040;-70
2023/06/25 01:34:19;;;;;;;11.40;5.75;;;;;;;;;;5046805;28;20033;-70
2023/06/25 01:36:51;;;;;;;11.60;5.75;;;;;;;;;;5044932;28;20025;-70
2023/06/25 01:39:21;;;;;;;10.93;5.78;;;;;;;;;;5046781;28;20535;-70
2023/06/25 01:41:47;;;;;;;11.93;6.47;;;;;;;;;;5046810;28;20029;-71
2023/06/25 01:44:15;;;;;;;9.82;5.90;;;;;;;;;;5048234;28;20023;-71
2023/06/25 01:46:41;;;;;;;13.65;5.88;;;;;;;;;;5046377;28;20086;-70
2023/06/25 01:49:07;;;;;;;12.77;6.53;;;;;;;;;;5047376;28;20040;-70
2023/06/25 01:51:32;;;;;;;12.23;6.07;;;;;;;;;;5045336;28;20055;-70
2023/06/25 01:53:58;;;;;;;11.02;6.00;;;;;;;;;;5046970;28;20103;-71
2023/06/25 01:56:24;;;;;;;10.43;5.85;;;;;;;;;;5047364;28;20048;-71
2023/06/25 01:58:53;;;;;;;11.32;6.03;;;;;;;;;;5038460;28;20045;-71
2023/06/25 02:01:20;;;;;;;10.98;6.20;;;;;;;;;;5045699;28;20116;-70
2023/06/25 02:03:45;;;;;;;10.13;5.82;;;;;;;;;;5046931;28;20037;-70
2023/06/25 02:06:10;;;;;;;12.75;5.65;;;;;;;;;;5047842;28;20055;-70
2023/06/25 02:08:36;;;;;;;9.68;5.50;;;;;;;;;;5051369;28;20029;-70
2023/06/25 02:11:01;;;;;;;10.20;5.55;;;;;;;;;;5058332;28;20033;-70
2023/06/25 02:13:26;;;;;;;9.32;5.50;;;;;;;;;;5050773;28;20076;-70
2023/06/25 02:15:52;;;;;;;8.25;5.18;;;;;;;;;;5047016;28;20613;-71
2023/06/25 02:18:17;;;;;;;10.43;5.70;;;;;;;;;;5078570;28;20495;-71
2023/06/25 02:20:42;;;;;;;8.77;5.53;;;;;;;;;;5046732;28;20074;-70
2023/06/25 02:23:08;;;;;;;9.48;5.10;;;;;;;;;;5046990;28;20033;-70
2023/06/25 02:25:33;;;;;;;9.80;5.53;;;;;;;;;;5044837;28;20036;-70
2023/06/25 02:27:58;;;;;;;8.95;5.75;;;;;;;;;;5046374;28;20582;-71
2023/06/25 02:30:23;;;;;;;7.50;5.55;;;;;;;;;;5045408;28;20055;-70
2023/06/25 02:32:49;;;;;;;7.97;5.03;;;;;;;;;;5044658;28;20021;-71
2023/06/25 02:35:14;;;;;;;8.77;5.25;;;;;;;;;;5046449;28;20056;-71
2023/06/25 02:37:39;;;;;;;10.02;5.90;;;;;;;;;;5044774;28;20402;-70
2023/06/25 02:40:05;;;;;;;10.43;5.28;;;;;;;;;;5044670;28;20091;-69
2023/06/25 02:42:31;;;;;;;9.23;5.28;;;;;;;;;;5044171;28;20060;-70
2023/06/25 02:44:56;;;;;;;11.68;6.10;;;;;;;;;;5046056;28;20536;-70
2023/06/25 02:47:21;;;;;;;10.75;5.57;;;;;;;;;;5046403;28;20028;-71
2023/06/25 02:49:47;;;;;;;8.35;5.25;;;;;;;;;;5045856;28;20044;-71
2023/06/25 02:52:12;;;;;;;9.23;5.50;;;;;;;;;;5045853;28;20402;-70
2023/06/25 02:54:37;;;;;;;11.10;5.43;;;;;;;;;;5044368;28;20112;-70
2023/06/25 02:57:03;;;;;;;9.63;4.72;;;;;;;;;;5045592;28;20474;-70
2023/06/25 02:59:28;;;;;;;10.68;5.57;;;;;;;;;;5034671;28;20112;-70
2023/06/25 03:01:53;;;;;;;8.10;5.20;;;;;;;;;;5045969;28;20771;-71
2023/06/25 03:04:19;;;;;;;10.07;5.20;;;;;;;;;;5045142;28;20056;-70
2023/06/25 03:06:44;;;;;;;11.68;4.70;;;;;;;;;;5077544;28;20033;-70
2023/06/25 03:09:09;;;;;;;10.77;5.65;;;;;;;;;;5045861;28;20029;-71
2023/06/25 03:11:35;;;;;;;8.77;4.85;;;;;;;;;;5046248;28;20662;-71
2023/06/25 03:14:00;;;;;;;10.95;5.22;;;;;;;;;;5043835;28;20475;-70
2023/06/25 03:16:26;;;;;;;9.45;5.18;;;;;;;;;;5044318;28;20033;-71
2023/06/25 03:18:51;;;;;;;9.35;4.72;;;;;;;;;;5045718;28;20211;-71
2023/06/25 03:21:16;;;;;;;9.52;5.18;;;;;;;;;;5045305;28;20029;-70
2023/06/25 03:23:42;;;;;;;9.20;5.00;;;;;;;;;;5045568;28;20029;-71
2023/06/25 03:26:07;;;;;;;10.27;4.80;;;;;;;;;;5045672;28;20098;-71
2023/06/25 03:28:32;;;;;;;10.27;4.95;;;;;;;;;;5045967;28;20523;-70
2023/06/25 03:30:58;;;;;;;8.43;4.72;;;;;;;;;;5045424;28;20570;-71
2023/06/25 03:33:23;;;;;;;9.45;4.82;;;;;;;;;;5048760;28;20513;-71
2023/06/25 03:35:48;;;;;;;9.30;5.30;;;;;;;;;;5055974;28;20025;-70
2023/06/25 03:38:14;;;;;;;8.25;4.32;;;;;;;;;;5050948;28;20017;-71
2023/06/25 03:40:40;;;;;;;8.77;5.00;;;;;;;;;;5043876;28;20068;-70
2023/06/25 03:43:05;;;;;;;9.30;5.00;;;;;;;;;;5045414;28;20052;-71
2023/06/25 03:45:30;;;;;;;12.55;5.05;;;;;;;;;;5044864;28;20060;-70
2023/06/25 03:47:56;;;;;;;8.35;4.68;;;;;;;;;;5045116;28;20652;-71
2023/06/25 03:50:21;;;;;;;11.50;4.65;;;;;;;;;;5045546;28;20048;-71
2023/06/25 03:52:46;;;;;;;10.60;4.53;;;;;;;;;;5044636;28;20043;-70
2023/06/25 03:55:12;;;;;;;8.30;4.70;;;;;;;;;;5045242;28;20118;-71
2023/06/25 03:57:37;;;;;;;8.48;4.20;;;;;;;;;;5043780;28;20119;-70
2023/06/25 04:00:04;;;;;;;7.55;4.68;;;;;;;;;;5044683;28;20419;-71
2023/06/25 04:02:29;;;;;;;8.18;4.53;;;;;;;;;;5044950;28;20560;-71
2023/06/25 04:04:54;;;;;;;9.10;4.50;;;;;;;;;;5045121;28;20053;-71
2023/06/25 04:07:20;;;;;;;8.98;4.68;;;;;;;;;;5044797;28;20388;-71
2023/06/25 04:09:45;;;;;;;8.20;4.18;;;;;;;;;;5044350;28;20026;-71
2023/06/25 04:12:10;;;;;;;6.88;4.38;;;;;;;;;;5032027;28;20038;-71
2023/06/25 04:14:36;;;;;;;10.30;4.20;;;;;;;;;;5045622;28;20705;-70
2023/06/25 04:17:01;;;;;;;7.03;3.95;;;;;;;;;;5044836;28;20068;-70
2023/06/25 04:19:26;;;;;;;9.57;4.25;;;;;;;;;;5045045;28;20059;-71
2023/06/25 04:21:52;;;;;;;9.45;4.40;;;;;;;;;;5044963;28;20033;-70
2023/06/25 04:24:17;;;;;;;7.70;4.28;;;;;;;;;;5044414;28;20112;-71
2023/06/25 04:26:42;;;;;;;7.43;4.18;;;;;;;;;;5045356;28;20682;-71
2023/06/25 04:29:08;;;;;;;6.32;4.10;;;;;;;;;;5044567;28;20029;-70
2023/06/25 04:31:33;;;;;;;7.45;4.28;;;;;;;;;;5044478;28;20036;-70
2023/06/25 04:33:58;;;;;;;7.35;4.07;;;;;;;;;;5044942;28;20029;-70
2023/06/25 04:36:23;;;;;;;7.80;4.10;;;;;;;;;;5076997;28;20753;-70
2023/06/25 04:38:49;;;;;;;6.93;4.03;;;;;;;;;;5044471;28;20025;-71
2023/06/25 04:41:14;;;;;;;8.18;4.05;;;;;;;;;;5044711;28;20051;-70
2023/06/25 04:43:39;;;;;;;7.88;4.03;;;;;;;;;;5047912;28;20044;-70
2023/06/25 04:46:05;;;;;;;9.35;4.00;;;;;;;;;;5048398;28;20489;-70
2023/06/25 04:48:30;;;;;;;7.93;4.57;;;;;;;;;;5080171;28;20029;-71
2023/06/25 04:50:55;;;;;;;10.45;4.00;;;;;;;;;;5048758;28;20052;-70
2023/06/25 04:53:21;;;;;;;8.27;4.20;;;;;;;;;;5049122;28;20021;-70
2023/06/25 04:55:46;;;;;;;8.27;4.28;;;;;;;;;;5048296;28;20047;-70
2023/06/25 04:58:11;;;;;;;9.60;4.63;;;;;;;;;;5047217;28;20037;-71
2023/06/25 05:00:37;;;;;;;8.45;4.28;;;;;;;;;;5056293;28;20036;-71
2023/06/25 05:03:02;;;;;;;7.82;4.13;;;;;;;;;;5055945;28;20159;-71
2023/06/25 05:05:27;;;;;;;8.55;4.05;;;;;;;;;;5047719;28;20049;-71
2023/06/25 05:07:53;;;;;;;8.18;3.63;;;;;;;;;;5045052;28;20041;-70
2023/06/25 05:10:19;;;;;;;10.77;4.13;;;;;;;;;;5048094;28;20033;-71
2023/06/25 05:12:45;;;;;;;8.52;4.03;;;;;;;;;;5032849;28;20029;-70
2023/06/25 05:15:10;;;;;;;8.88;4.50;;;;;;;;;;5047816;28;20395;-70
2023/06/25 05:17:35;;;;;;;8.38;4.13;;;;;;;;;;5045426;28;20417;-70
2023/06/25 05:20:01;;;;;;;8.57;4.15;;;;;;;;;;5046649;28;20033;-70
2023/06/25 05:22:26;;;;;;;8.10;4.40;;;;;;;;;;5032913;28;20650;-70
2023/06/25 05:24:51;;;;;;;10.77;4.80;;;;;;;;;;5042625;28;20039;-70
2023/06/25 05:27:17;;;;;;;8.68;4.50;;;;;;;;;;5044705;28;20040;-70
2023/06/25 05:29:42;;;;;;;10.45;4.40;;;;;;;;;;5046945;28;20058;-70
2023/06/25 05:32:08;;;;;;;9.85;4.78;;;;;;;;;;5046765;28;20033;-70
2023/06/25 05:34:33;;;;;;;10.68;4.30;;;;;;;;;;5045620;28;20099;-70
2023/06/25 05:36:58;;;;;;;9.88;4.68;;;;;;;;;;5078615;28;20057;-70
2023/06/25 05:39:28;;;;;;;10.77;4.70;;;;;;;;;;5043788;28;20052;-70
2023/06/25 05:41:58;;;;;;;9.18;4.22;;;;;;;;;;5041813;28;20142;-70
2023/06/25 05:44:24;;;;;;;10.18;4.40;;;;;;;;;;5046822;28;20613;-70
2023/06/25 05:46:50;;;;;;;9.13;3.83;;;;;;;;;;5041729;28;20098;-70
2023/06/25 05:49:15;;;;;;;10.10;4.03;;;;;;;;;;5046440;28;20449;-70
2023/06/25 05:51:40;;;;;;;7.82;3.65;;;;;;;;;;5045895;28;20112;-70
2023/06/25 05:54:06;;;;;;;10.10;4.15;;;;;;;;;;5046362;28;20498;-70
2023/06/25 05:56:31;;;;;;;9.77;4.20;;;;;;;;;;5047053;28;20502;-70
2023/06/25 05:58:57;;;;;;;9.70;3.65;;;;;;;;;;5045106;28;20041;-70
2023/06/25 06:01:23;;;;;;;10.48;3.80;;;;;;;;;;5046400;28;20037;-70
2023/06/25 06:03:48;;;;;;;7.88;3.67;;;;;;;;;;5078716;28;20029;-70
2023/06/25 06:06:13;;;;;;;10.02;3.75;;;;;;;;;;5046425;28;20040;-70
2023/06/25 06:08:38;;;;;;;10.00;3.72;;;;;;;;;;5046776;28;20047;-70
2023/06/25 06:11:04;;;;;;;10.18;4.18;;;;;;;;;;5042233;28;20065;-70
2023/06/25 06:13:29;;;;;;;6.90;3.55;;;;;;;;;;5036898;28;20041;-70
2023/06/25 06:15:55;;;;;;;10.85;3.90;;;;;;;;;;5031876;28;20048;-70
2023/06/25 06:18:20;;;;;;;7.82;3.50;;;;;;;;;;5041937;28;20041;-70
2023/06/25 06:20:46;;;;;;;7.25;3.97;;;;;;;;;;5046980;28;20031;-70
2023/06/25 06:23:11;;;;;;;9.90;3.90;;;;;;;;;;5049155;28;20036;-70
2023/06/25 06:25:36;;;;;;;10.82;3.50;;;;;;;;;;5054576;28;20613;-70
2023/06/25 06:28:02;;;;;;;6.40;3.55;;;;;;;;;;5054142;28;20064;-70
2023/06/25 06:30:27;;;;;;;8.15;4.13;;;;;;;;;;5046072;28;20106;-70
2023/06/25 06:32:53;;;;;;;6.50;3.90;;;;;;;;;;5078639;28;20194;-70
2023/06/25 06:35:18;;;;;;;8.20;3.75;;;;;;;;;;5046725;28;20604;-70
2023/06/25 06:37:44;;;;;;;7.53;3.33;;;;;;;;;;5046305;28;20033;-70
2023/06/25 06:40:10;;;;;;;11.25;4.07;;;;;;;;;;5045409;28;20697;-70
2023/06/25 06:42:35;;;;;;;7.15;3.80;;;;;;;;;;5045628;28;20037;-70
2023/06/25 06:45:01;;;;;;;9.98;3.78;;;;;;;;;;5046280;28;20063;-70
2023/06/25 06:47:26;;;;;;;6.57;3.47;;;;;;;;;;5046160;28;20121;-70
2023/06/25 06:49:52;;;;;;;9.10;3.97;;;;;;;;;;5044565;28;20206;-70
2023/06/25 06:52:23;;;;;;;6.95;3.65;;;;;;;;;;5046237;28;20033;-70
2023/06/25 06:54:48;;;;;;;7.40;4.18;;;;;;;;;;5045552;28;20871;-70
2023/06/25 06:57:14;;;;;;;10.23;3.85;;;;;;;;;;5044602;28;20056;-70
2023/06/25 06:59:39;;;;;;;13.80;3.90;;;;;;;;;;5042312;28;20166;-70
2023/06/25 07:02:05;;;;;;;6.07;4.07;;;;;;;;;;5045691;28;20496;-70
2023/06/25 07:04:30;;;;;;;11.15;4.85;;;;;;;;;;5044992;28;20059;-70
2023/06/25 07:06:55;;;;;;;6.45;3.90;;;;;;;;;;5041959;28;20040;-70
2023/06/25 07:09:24;;;;;;;6.47;4.00;;;;;;;;;;5042157;28;20530;-70
2023/06/25 07:11:49;;;;;;;8.45;4.00;;;;;;;;;;5034858;28;20055;-70
2023/06/25 07:14:15;;;;;;;7.78;3.92;;;;;;;;;;5043526;28;20425;-70
2023/06/25 07:16:41;;;;;;;6.90;4.07;;;;;;;;;;5043500;28;20045;-70
2023/06/25 07:19:07;;;;;;;6.95;4.32;;;;;;;;;;5044151;28;20123;-70
2023/06/25 07:21:32;;;;;;;8.90;4.40;;;;;;;;;;5043898;28;20112;-70
2023/06/25 07:23:58;;;;;;;7.72;3.88;;;;;;;;;;5044657;28;20029;-70
2023/06/25 07:26:23;;;;;;;6.85;4.18;;;;;;;;;;5044314;28;20025;-70
2023/06/25 07:28:48;;;;;;;5.38;4.03;;;;;;;;;;5043694;28;20095;-70
2023/06/25 07:31:14;;;;;;;6.93;4.15;;;;;;;;;;5040950;28;20585;-70
2023/06/25 07:33:39;;;;;;;8.90;4.88;;;;;;;;;;5037672;28;20045;-70
2023/06/25 07:36:04;;;;;;;6.82;4.03;;;;;;;;;;5037410;28;20056;-70
2023/06/25 07:38:30;;;;;;;7.00;3.92;;;;;;;;;;5044134;28;20025;-71
2023/06/25 07:40:55;;;;;;;7.25;4.22;;;;;;;;;;5044881;28;20080;-70
2023/06/25 07:43:20;;;;;;;10.55;4.32;;;;;;;;;;5044479;28;20033;-70
2023/06/25 07:45:46;;;;;;;14.18;4.00;;;;;;;;;;5045078;28;20040;-70
2023/06/25 07:48:11;;;;;;;6.18;4.18;;;;;;;;;;5046487;28;20116;-70
2023/06/25 07:50:37;;;;;;;6.07;4.32;;;;;;;;;;5051526;28;20044;-70
2023/06/25 07:53:03;;;;;;;7.22;4.18;;;;;;;;;;5053949;28;20041;-70
2023/06/25 07:55:28;;;;;;;5.45;4.07;;;;;;;;;;5078053;28;20655;-70
2023/06/25 07:57:53;;;;;;;6.97;4.10;;;;;;;;;;5039220;28;20072;-70
2023/06/25 08:00:19;;;;;;;6.70;4.50;;;;;;;;;;5042850;28;20037;-70
2023/06/25 08:02:44;;;;;;;10.27;4.22;;;;;;;;;;5043070;28;20036;-70
2023/06/25 08:05:10;;;;;;;6.35;4.28;;;;;;;;;;5045191;28;20128;-70
2023/06/25 08:07:36;;;;;;;4.45;3.55;;;;;;;;;;5044398;28;20075;-70
2023/06/25 08:10:02;;;;;;;6.40;4.18;;;;;;;;;;5044624;28;20502;-70
2023/06/25 08:12:27;;;;;;;7.60;4.22;;;;;;;;;;5043458;28;20037;-70
2023/06/25 08:14:53;;;;;;;5.88;4.30;;;;;;;;;;5044512;28;20029;-70
2023/06/25 08:17:18;;;;;;;6.70;4.40;;;;;;;;;;5047153;28;20031;-70
2023/06/25 08:19:43;;;;;;;5.35;4.40;;;;;;;;;;5047869;28;20033;-70
2023/06/25 08:22:09;;;;;;;6.57;4.22;;;;;;;;;;5046131;28;20041;-70
2023/06/25 08:24:34;;;;;;;6.70;4.13;;;;;;;;;;5047368;28;20029;-70
2023/06/25 08:26:59;;;;;;;5.85;4.50;;;;;;;;;;5047610;28;20029;-70
2023/06/25 08:29:25;;;;;;;5.68;4.10;;;;;;;;;;5045132;28;20028;-70
2023/06/25 08:31:50;;;;;;;9.38;4.57;;;;;;;;;;5046002;28;20043;-70
2023/06/25 08:34:15;;;;;;;5.18;3.92;;;;;;;;;;5046532;28;20041;-70
2023/06/25 08:36:40;;;;;;;6.00;4.05;;;;;;;;;;5046458;28;20032;-70
2023/06/25 08:39:06;;;;;;;6.03;4.53;;;;;;;;;;5047942;28;20048;-70
2023/06/25 08:41:31;;;;;;;5.82;4.13;;;;;;;;;;5047889;28;20024;-70
2023/06/25 08:43:57;;;;;;;5.45;3.92;;;;;;;;;;5039675;28;20045;-70
2023/06/25 08:46:23;;;;;;;5.70;4.00;;;;;;;;;;5045148;28;20525;-70
2023/06/25 08:48:54;;;;;;;5.75;4.10;;;;;;;;;;5041483;28;20056;-70
2023/06/25 08:51:23;;;;;;;7.25;4.47;;;;;;;;;;5027617;28;20711;-70
2023/06/25 08:53:49;;;;;;;6.03;4.90;;;;;;;;;;5053709;28;20033;-70
2023/06/25 08:56:17;;;;;;;8.18;4.30;;;;;;;;;;5048209;28;20104;-70
2023/06/25 08:58:43;;;;;;;7.35;4.22;;;;;;;;;;5047291;28;20451;-70
2023/06/25 09:01:14;;;;;;;5.68;4.25;;;;;;;;;;5047711;28;20072;-70
2023/06/25 09:03:41;;;;;;;5.30;4.13;;;;;;;;;;5047698;28;20586;-70
2023/06/25 09:06:16;;;;;;;6.97;4.47;;;;;;;;;;5047037;28;20044;-70
2023/06/25 09:08:42;;;;;;;4.93;3.72;;;;;;;;;;5043745;28;20717;-70
2023/06/25 09:11:08;;;;;;;5.97;4.50;;;;;;;;;;5038852;28;20103;-70
2023/06/25 09:13:34;;;;;;;6.53;4.50;;;;;;;;;;5048738;28;20461;-70
2023/06/25 09:16:04;;;;;;;5.57;4.30;;;;;;;;;;5054894;28;20048;-70
2023/06/25 09:18:30;;;;;;;5.68;4.10;;;;;;;;;;5057035;28;20495;-70
2023/06/25 09:21:00;;;;;;;7.78;4.53;;;;;;;;;;5047165;28;20414;-70
2023/06/25 09:23:25;;;;;;;6.28;4.63;;;;;;;;;;5046936;28;20028;-70
2023/06/25 09:25:51;;;;;;;5.68;4.47;;;;;;;;;;5040218;28;20044;-70
2023/06/25 09:28:17;;;;;;;7.47;4.25;;;;;;;;;;5034406;28;20053;-70
2023/06/25 09:30:43;;;;;;;6.38;4.55;;;;;;;;;;5046047;28;20098;-70
2023/06/25 09:33:10;;;;;;;7.20;4.38;;;;;;;;;;5044935;28;20044;-70
2023/06/25 09:35:35;;;;;;;5.13;4.00;;;;;;;;;;5047114;28;20064;-70
2023/06/25 09:38:02;;;;;;;7.85;4.65;;;;;;;;;;5044940;28;20099;-70
2023/06/25 09:40:27;;;;;;;5.22;4.30;;;;;;;;;;5046637;28;20493;-70
2023/06/25 09:42:55;;;;;;;5.72;4.40;;;;;;;;;;5047029;28;20112;-70
2023/06/25 09:45:22;;;;;;;5.30;4.07;;;;;;;;;;5037988;28;20041;-70
2023/06/25 09:47:51;;;;;;;7.47;4.78;;;;;;;;;;5037069;28;20021;-70
2023/06/25 09:50:19;;;;;;;5.82;4.63;;;;;;;;;;5046725;28;20030;-70
2023/06/25 09:53:07;;;;;;;6.40;4.78;;;;;;;;;;5046288;28;20549;-70
2023/06/25 09:55:34;;;;;;;6.63;4.60;;;;;;;;;;5045472;28;20122;-70
2023/06/25 09:58:01;;;;;;;5.20;3.92;;;;;;;;;;5042693;28;20095;-70
2023/06/25 10:00:27;;;;;;;6.55;4.90;;;;;;;;;;5046486;28;20028;-70
2023/06/25 10:02:53;;;;;;;7.03;4.95;;;;;;;;;;5046385;28;20060;-70
2023/06/25 10:05:18;;;;;;;7.03;4.80;;;;;;;;;;5041385;28;20119;-70
2023/06/25 10:07:44;;;;;;;9.10;4.80;;;;;;;;;;5045856;28;20041;-70
2023/06/25 10:10:25;;;;;;;5.95;4.80;;;;;;;;;;5046593;28;20521;-70
2023/06/25 10:12:52;;;;;;;5.68;4.78;;;;;;;;;;5045794;28;20037;-70
2023/06/25 10:15:31;;;;;;;8.55;4.88;;;;;;;;;;5046331;28;20036;-70
2023/06/25 10:17:58;;;;;;;5.20;4.63;;;;;;;;;;5037970;28;20565;-70
2023/06/25 10:20:26;;;;;;;6.70;5.03;;;;;;;;;;5046251;28;20459;-70
2023/06/25 10:23:03;;;;;;;5.85;5.10;;;;;;;;;;5044286;28;20075;-70
2023/06/25 10:25:29;;;;;;;6.05;5.07;;;;;;;;;;5043873;28;20445;-70
2023/06/25 10:28:05;;;;;;;6.70;4.68;;;;;;;;;;5043007;28;20047;-70
2023/06/25 10:30:45;;;;;;;8.02;5.43;;;;;;;;;;5044591;28;20036;-70
2023/06/25 10:33:15;;;;;;;7.40;5.35;;;;;;;;;;5043732;28;20043;-70
2023/06/25 10:35:42;;;;;;;6.03;5.32;;;;;;;;;;5041587;28;20033;-70
2023/06/25 10:38:08;;;;;;;6.68;5.53;;;;;;;;;;5046646;28;20131;-70
2023/06/25 10:40:38;;;;;;;5.82;5.20;;;;;;;;;;5046566;28;20127;-70
2023/06/25 10:43:04;;;;;;;6.82;5.40;;;;;;;;;;5051056;28;20041;-70
2023/06/25 10:45:30;;;;;;;7.40;5.18;;;;;;;;;;5052150;28;20036;-70
2023/06/25 10:48:01;;;;;;;7.05;5.05;;;;;;;;;;5046041;28;20028;-70
2023/06/25 10:50:33;;;;;;;6.00;5.35;;;;;;;;;;5045907;28;20100;-70
2023/06/25 10:53:00;;;;;;;5.30;4.80;;;;;;;;;;5045790;28;20041;-71
2023/06/25 10:55:25;;;;;;;7.55;4.90;;;;;;;;;;5045279;28;20056;-70
2023/06/25 10:57:55;;;;;;;7.57;5.10;;;;;;;;;;5045219;28;20064;-70
2023/06/25 11:00:25;;;;;;;8.25;5.30;;;;;;;;;;5045331;28;20033;-70
2023/06/25 11:02:52;;;;;;;6.65;5.03;;;;;;;;;;5044994;28;20067;-70
2023/06/25 11:05:18;;;;;;;7.18;4.80;;;;;;;;;;5044929;28;20065;-70
2023/06/25 11:07:43;;;;;;;5.70;5.00;;;;;;;;;;5045028;28;20041;-70
2023/06/25 11:10:10;;;;;;;6.60;4.90;;;;;;;;;;5044847;28;20786;-70
2023/06/25 11:12:35;;;;;;;7.43;5.43;;;;;;;;;;5031990;28;20096;-70
2023/06/25 11:15:00;;;;;;;6.40;4.90;;;;;;;;;;5044950;28;20033;-70
2023/06/25 11:17:26;;;;;;;7.15;5.10;;;;;;;;;;5044896;28;20009;-70
2023/06/25 11:19:53;;;;;;;6.00;4.95;;;;;;;;;;5040008;28;20637;-71
2023/06/25 11:22:19;;;;;;;7.57;5.50;;;;;;;;;;5044584;28;20045;-70
2023/06/25 11:24:45;;;;;;;6.05;4.85;;;;;;;;;;5043766;28;20091;-70
2023/06/25 11:27:10;;;;;;;5.38;4.65;;;;;;;;;;5058665;28;20052;-70
2023/06/25 11:29:37;;;;;;;5.40;4.75;;;;;;;;;;5035776;28;20032;-70
2023/06/25 11:32:11;;;;;;;5.72;4.15;;;;;;;;;;5044835;28;20090;-70
2023/06/25 11:34:42;;;;;;;5.18;4.43;;;;;;;;;;5044617;28;20041;-70
2023/06/25 11:37:10;;;;;;;5.00;4.50;;;;;;;;;;5045022;28;20068;-70
2023/06/25 11:39:45;;;;;;;5.28;4.20;;;;;;;;;;5044663;28;20040;-70
2023/06/25 11:42:16;;;;;;;8.15;5.30;;;;;;;;;;5043797;28;20108;-70
2023/06/25 11:44:42;;;;;;;5.82;5.00;;;;;;;;;;5076552;28;20424;-70
2023/06/25 11:47:09;;;;;;;5.35;4.53;;;;;;;;;;5044279;28;20624;-70
2023/06/25 11:49:34;;;;;;;6.20;4.70;;;;;;;;;;5045188;28;20080;-70
2023/06/25 11:52:00;;;;;;;6.05;4.55;;;;;;;;;;5046685;28;20036;-70
2023/06/25 11:54:25;;;;;;;8.10;4.68;;;;;;;;;;5048742;28;20407;-70
2023/06/25 11:56:50;;;;;;;6.10;4.85;;;;;;;;;;5048488;28;20029;-70
2023/06/25 11:59:16;;;;;;;5.05;4.50;;;;;;;;;;5049345;28;20025;-70
2023/06/25 12:01:41;;;;;;;5.35;4.43;;;;;;;;;;5047880;28;20037;-70
2023/06/25 12:04:06;;;;;;;6.18;4.38;;;;;;;;;;5049284;28;20430;-70
2023/06/25 12:06:32;;;;;;;5.22;4.60;;;;;;;;;;5049640;28;20076;-70
2023/06/25 12:08:57;;;;;;;6.15;4.95;;;;;;;;;;5054068;28;20127;-70
2023/06/25 12:11:22;;;;;;;5.78;4.50;;;;;;;;;;5047975;28;20028;-70
2023/06/25 12:13:48;;;;;;;6.38;4.65;;;;;;;;;;5041383;28;20032;-70
2023/06/25 12:16:13;;;;;;;6.22;4.47;;;;;;;;;;5046900;28;20568;-70
2023/06/25 12:18:38;;;;;;;5.40;4.60;;;;;;;;;;5047651;28;20422;-70
2023/06/25 12:21:04;;;;;;;7.10;6.40;;;;;;;;;;5044251;28;20414;-71
2023/06/25 12:23:29;;;;;;;6.28;4.53;;;;;;;;;;5041999;28;20078;-70
2023/06/25 12:25:54;;;;;;;6.55;4.70;;;;;;;;;;5047812;28;20039;-70
2023/06/25 12:28:20;;;;;;;6.70;4.68;;;;;;;;;;5046239;28;20048;-70
2023/06/25 12:30:45;;;;;;;5.45;4.60;;;;;;;;;;5048432;28;20029;-70
2023/06/25 12:33:11;;;;;;;5.78;4.38;;;;;;;;;;5047477;28;20032;-70
2023/06/25 12:35:36;;;;;;;5.70;4.72;;;;;;;;;;5036743;28;20029;-70
2023/06/25 12:38:02;;;;;;;5.60;4.57;;;;;;;;;;5033298;28;20922;-70
2023/06/25 12:40:27;;;;;;;7.95;4.72;;;;;;;;;;5048113;28;20502;-70
2023/06/25 12:42:54;;;;;;;9.25;4.72;;;;;;;;;;5047234;28;20036;-70
2023/06/25 12:45:21;;;;;;;6.88;5.07;;;;;;;;;;5047273;28;20039;-70
2023/06/25 12:47:46;;;;;;;5.97;4.78;;;;;;;;;;5047884;28;20017;-70
2023/06/25 12:50:11;;;;;;;6.07;4.40;;;;;;;;;;5047549;28;20078;-70
2023/06/25 12:52:38;;;;;;;5.40;4.32;;;;;;;;;;5047717;28;20033;-70
2023/06/25 12:55:05;;;;;;;6.10;4.88;;;;;;;;;;5045073;28;20422;-70
2023/06/25 12:57:33;;;;;;;5.38;4.50;;;;;;;;;;5045395;28;20033;-70
2023/06/25 12:59:58;;;;;;;5.90;4.82;;;;;;;;;;5045994;28;20110;-70
2023/06/25 13:02:24;;;;;;;5.53;4.60;;;;;;;;;;5047001;28;20055;-70
2023/06/25 13:04:49;;;;;;;6.07;4.55;;;;;;;;;;5046399;28;20059;-70
2023/06/25 13:07:14;;;;;;;6.57;4.60;;;;;;;;;;5047400;28;20040;-70
2023/06/25 13:09:40;;;;;;;7.30;4.90;;;;;;;;;;5047292;28;20036;-70
2023/06/25 13:12:05;;;;;;;6.00;4.80;;;;;;;;;;5034405;28;20033;-70
2023/06/25 13:14:31;;;;;;;5.57;4.72;;;;;;;;;;5047382;28;20033;-70
2023/06/25 13:16:56;;;;;;;6.93;4.88;;;;;;;;;;5047489;28;20573;-70
2023/06/25 13:19:21;;;;;;;5.68;4.53;;;;;;;;;;5047117;28;20033;-70
2023/06/25 13:21:48;;;;;;;5.57;4.78;;;;;;;;;;5045186;28;20094;-70
2023/06/25 13:24:14;;;;;;;7.63;4.88;;;;;;;;;;5037607;28;20032;-70
2023/06/25 13:26:39;;;;;;;5.72;4.60;;;;;;;;;;5036727;28;20021;-70
2023/06/25 13:29:05;;;;;;;5.38;4.57;;;;;;;;;;5043757;28;20110;-70
2023/06/25 13:31:30;;;;;;;5.20;4.68;;;;;;;;;;5046737;28;20044;-70
2023/06/25 13:33:56;;;;;;;5.53;3.97;;;;;;;;;;5051815;28;20426;-70
2023/06/25 13:36:21;;;;;;;4.95;4.28;;;;;;;;;;5058781;28;20414;-70
2023/06/25 13:38:47;;;;;;;9.38;4.50;;;;;;;;;;5048583;28;20562;-71
2023/06/25 13:41:12;;;;;;;5.13;4.30;;;;;;;;;;5027811;28;20037;-71
2023/06/25 13:43:37;;;;;;;5.38;4.30;;;;;;;;;;5038023;28;20029;-71
2023/06/25 13:46:03;;;;;;;4.50;4.10;;;;;;;;;;5045734;28;20051;-71
2023/06/25 13:48:28;;;;;;;6.60;4.40;;;;;;;;;;5044933;28;20503;-71
2023/06/25 13:50:55;;;;;;;4.45;4.05;;;;;;;;;;5039909;28;20325;-71
2023/06/25 13:53:20;;;;;;;4.70;4.25;;;;;;;;;;5043777;28;20020;-71
2023/06/25 13:55:45;;;;;;;5.75;4.40;;;;;;;;;;5042542;28;20025;-72
2023/06/25 13:58:11;;;;;;;4.97;4.07;;;;;;;;;;5044482;28;20112;-71
2023/06/25 14:00:36;;;;;;;4.55;4.00;;;;;;;;;;5037870;28;20043;-70
2023/06/25 14:03:05;;;;;;;4.68;4.18;;;;;;;;;;5042528;28;20033;-71
2023/06/25 14:05:35;;;;;;;5.15;3.95;;;;;;;;;;5032864;28;20049;-71
2023/06/25 14:08:04;;;;;;;5.03;4.53;;;;;;;;;;5034078;28;20037;-71
2023/06/25 14:10:29;;;;;;;4.15;3.75;;;;;;;;;;5030216;28;20041;-71
2023/06/25 14:12:54;;;;;;;4.63;4.00;;;;;;;;;;5041360;28;20040;-71
2023/06/25 14:15:20;;;;;;;4.95;4.45;;;;;;;;;;5041714;28;20033;-71
2023/06/25 14:17:45;;;;;;;5.45;4.32;;;;;;;;;;5045569;28;20025;-70
2023/06/25 14:20:10;;;;;;;5.45;4.13;;;;;;;;;;5045100;28;20025;-71
2023/06/25 14:22:36;;;;;;;4.72;3.88;;;;;;;;;;5045971;28;20029;-71
2023/06/25 14:25:01;;;;;;;4.55;4.15;;;;;;;;;;5045613;28;20037;-71
2023/06/25 14:27:26;;;;;;;4.32;3.92;;;;;;;;;;5046043;28;20057;-71
2023/06/25 14:29:52;;;;;;;4.65;4.03;;;;;;;;;;5037241;28;20071;-71
2023/06/25 14:32:17;;;;;;;4.78;4.28;;;;;;;;;;5038026;28;20478;-71
2023/06/25 14:34:42;;;;;;;3.83;3.42;;;;;;;;;;5045579;28;20167;-71